Home > Products > Valid Products > MTR

000
SAUS41 KLWX 240401 COR
MTRRSP
METAR KRSP 240354Z AUTO 13003KT 10SM CLR 12/07 A3041 RMK AO2 SLP303
T01220067 $





000
SAUS41 KLWX 240400
MTRRYT
METAR KRYT 240353Z AUTO 00000KT 10SM CLR 09/08 A3039 RMK AO2 SLP290
T00940078 $





000
SAUS41 KLWX 240359 COR
MTRDMH
METAR KDMH 240354Z AUTO 16/10 A3039 RMK AO1 SLP292 T01610100





000
SAUS41 KLWX 240355
MTRNAK
METAR KNAK 240354Z AUTO 00000KT 10SM CLR 17/12 A3038 RMK AO2 SLP289
T01670122 $





000
SAUS41 KLWX 240301 COR
MTRRSP
METAR KRSP 240254Z AUTO 12004KT 10SM CLR 13/07 A3040 RMK AO2 SLP301
T01280067 53009 $





000
SAUS41 KLWX 240300
MTRRYT
METAR KRYT 240253Z AUTO 00000KT 10SM CLR 10/08 A3039 RMK AO2 SLP290
T01000083 53010 $





000
SAUS41 KLWX 240259 COR
MTRDMH
METAR KDMH 240254Z AUTO 17/10 A3038 RMK AO1 SLP288 T01670100 51010





000
SAUS41 KLWX 240255
MTRNAK
METAR KNAK 240254Z AUTO 08004KT 10SM CLR 17/12 A3037 RMK AO2 SLP285
T01720117 50007 $





000
SAUS41 KLWX 240201 COR
MTRRSP
METAR KRSP 240154Z AUTO VRB04KT 10SM CLR 13/07 A3039 RMK AO2 SLP298
T01330067 $





000
SAUS41 KLWX 240200
MTRRYT
METAR KRYT 240153Z AUTO 00000KT 10SM CLR 10/09 A3037 RMK AO2 SLP286
T01000089 $





000
SAUS41 KLWX 240159 COR
MTRDMH
METAR KDMH 240154Z AUTO 18/10 A3038 RMK AO1 SLP286 T01830100





000
SAUS41 KLWX 240155
MTRNAK
METAR KNAK 240154Z AUTO 10006KT 10SM CLR 18/11 A3037 RMK AO2 SLP286
T01780111 $





000
SAUS41 KLWX 240101 COR
MTRRSP
METAR KRSP 240054Z AUTO VRB03KT 10SM CLR 14/07 A3038 RMK AO2 SLP295
T01390067 $





000
SAUS41 KLWX 240100
MTRRYT
METAR KRYT 240053Z AUTO 00000KT 10SM CLR 12/09 A3036 RMK AO2 SLP283
T01170094 $





000
SAUS41 KLWX 240059 COR
MTRDMH
METAR KDMH 240054Z AUTO 19/08 A3036 RMK AO1 SLP281 T01890083





000
SAUS41 KLWX 240055
MTRNAK
METAR KNAK 240054Z AUTO 10009KT 10SM CLR 18/11 A3036 RMK AO2 SLP282
T01780106 $





000
SAUS41 KLWX 240001 COR
MTRRSP
METAR KRSP 232354Z AUTO 13003KT 10SM CLR 14/06 A3038 RMK AO2 SLP295
T01390056 10183 20139 53012 $





000
SAUS41 KLWX 240000
MTRRYT
METAR KRYT 232353Z AUTO 00000KT 10SM CLR 13/10 A3035 RMK AO2 SLP283
T01280100 10206 20128 53014 $





000
SAUS41 KLWX 232359 COR
MTRDMH
METAR KDMH 232354Z AUTO 19/08 A3035 RMK AO1 SLP278 T01890078 10217
20189 53012





000
SAUS41 KLWX 232355
MTRNAK
METAR KNAK 232354Z AUTO 00000KT 10SM CLR 16/11 A3035 RMK AO2 SLP278
T01610106 10200 20161 53012 $





000
SAUS41 KLWX 232301 COR
MTRRSP
METAR KRSP 232254Z AUTO 00000KT 10SM CLR 15/07 A3036 RMK AO2 SLP288
T01500067 $





000
SAUS41 KLWX 232300
MTRRYT
METAR KRYT 232253Z AUTO 00000KT 10SM CLR 15/11 A3033 RMK AO2 SLP274
T01500106 $





000
SAUS41 KLWX 232259 COR
MTRDMH
METAR KDMH 232254Z AUTO 19/08 A3034 RMK AO1 SLP273 T01940078





000
SAUS41 KLWX 232255
MTRNAK
METAR KNAK 232254Z AUTO 00000KT 10SM CLR 19/09 A3033 RMK AO2 SLP272
T01890089 $





000
SAUS41 KLWX 232201 COR
MTRRSP
METAR KRSP 232154Z AUTO 00000KT 10SM CLR 16/07 A3035 RMK AO2 SLP285
T01610072 $





000
SAUS41 KLWX 232200
MTRRYT
METAR KRYT 232153Z AUTO 00000KT 10SM CLR 19/09 A3032 RMK AO2 SLP268
T01890089 $





000
SAUS41 KLWX 232159 COR
MTRDMH
METAR KDMH 232154Z AUTO 20/08 A3033 RMK AO1 SLP270 T02000083





000
SAUS41 KLWX 232155
MTRNAK
METAR KNAK 232154Z AUTO 07005KT 10SM CLR 19/08 A3032 RMK AO2 SLP270
T01940083 $





000
SAUS41 KLWX 232101 COR
MTRRSP
METAR KRSP 232054Z AUTO 10003KT 10SM CLR 18/05 A3034 RMK AO2 SLP280
T01830050 56007 $





000
SAUS41 KLWX 232100
MTRRYT
METAR KRYT 232053Z AUTO 00000KT 10SM CLR 21/06 A3031 RMK AO2 SLP263
T02060056 55008 $





000
SAUS41 KLWX 232059 COR
MTRDMH
METAR KDMH 232054Z AUTO 20/08 A3032 RMK AO1 SLP266 T02000083 55007





000
SAUS41 KLWX 232055
MTRNAK
METAR KNAK 232054Z AUTO 04006KT 10SM CLR 19/08 A3031 RMK AO2 SLP266
T01940078 58010 $





000
SAUS41 KLWX 232001 COR
MTRRSP
METAR KRSP 231954Z AUTO VRB03KT 10SM CLR 18/04 A3034 RMK AO2 SLP280
T01780044 $





000
SAUS41 KLWX 232000
MTRRYT
METAR KRYT 231953Z AUTO 00000KT 10SM CLR 21/05 A3031 RMK AO2 SLP262
T02060050 $





000
SAUS41 KLWX 231959 COR
MTRDMH
METAR KDMH 231954Z AUTO 20/08 A3031 RMK AO1 SLP265 T02000078





000
SAUS41 KLWX 231956
MTRNAK
METAR KNAK 231954Z AUTO 14004KT 10SM CLR 19/07 A3032 RMK AO2 SLP269
T01890067 $





000
SAUS41 KLWX 231901 COR
MTRRSP
METAR KRSP 231854Z AUTO VRB04KT 10SM CLR 18/05 A3034 RMK AO2 SLP282
T01830050 $





000
SAUS41 KLWX 231900
MTRRYT
METAR KRYT 231853Z AUTO 00000KT 10SM CLR 19/04 A3032 RMK AO2 SLP266
T01940044 $





000
SAUS41 KLWX 231859 COR
MTRDMH
METAR KDMH 231854Z AUTO 21/06 A3033 RMK AO1 SLP268 T02110056





000
SAUS41 KLWX 231856
MTRNAK
METAR KNAK 231854Z AUTO 07009KT 10SM CLR 19/07 A3034 RMK AO2 SLP275
T01890067





000
SAUS41 KLWX 231801 COR
MTRRSP
METAR KRSP 231754Z AUTO VRB03KT 10SM CLR 17/04 A3036 RMK AO2 SLP287
60011 T01720044 10172 20072 50000 $





000
SAUS41 KLWX 231800
MTRRYT
METAR KRYT 231753Z AUTO 00000KT 10SM CLR 19/04 A3034 RMK AO2 SLP272
T01890044 10189 20061 58002 $





000
SAUS41 KLWX 231759 COR
MTRDMH
METAR KDMH 231754Z AUTO 20/05 A3034 RMK AO1 SLP273 T02000050 10200
20128 58009





000
SAUS41 KLWX 231756
MTRNAK
METAR KNAK 231754Z AUTO 35007KT 10SM CLR 18/07 A3034 RMK AO2 SLP277
T01830072 10189 20128 58005 $





000
SAUS41 KLWX 231701 COR
MTRRSP
METAR KRSP 231654Z AUTO VRB03KT 10SM CLR 17/04 A3037 RMK AO2 SLP291
T01670039 $





000
SAUS41 KLWX 231700
MTRRYT
METAR KRYT 231653Z AUTO 00000KT 10SM CLR 18/04 A3035 RMK AO2 SLP277
T01830039 $





000
SAUS41 KLWX 231659 COR
MTRDMH
METAR KDMH 231654Z AUTO 18/05 A3037 RMK AO1 SLP282 T01830050





000
SAUS41 KLWX 231655
MTRNAK
METAR KNAK 231654Z AUTO 32005KT 10SM CLR 18/07 A3036 RMK AO2 SLP282
T01830072 $





000
SAUS41 KLWX 231601 COR
MTRRSP
METAR KRSP 231554Z AUTO VRB03KT 10SM CLR 14/04 A3037 RMK AO2 SLP291
P0011 T01440044 $





000
SAUS41 KLWX 231600
MTRRYT
METAR KRYT 231553Z AUTO 00000KT 10SM CLR 17/04 A3035 RMK AO2 SLP277
T01670039 $





000
SAUS41 KLWX 231559 COR
MTRDMH
METAR KDMH 231554Z AUTO 19/06 A3037 RMK AO1 SLP282 T01890061





000
SAUS41 KLWX 231555
MTRNAK
METAR KNAK 231554Z AUTO 33004KT 10SM CLR 17/07 A3037 RMK AO2 SLP285
T01720067 $





000
SAUS41 KLWX 231500
MTRRYT
METAR KRYT 231453Z AUTO 00000KT 10SM CLR 16/04 A3034 RMK AO2 SLP274
T01560044 50007 $





000
SAUS41 KLWX 231459 COR
MTRDMH
METAR KDMH 231454Z AUTO 17/06 A3036 RMK AO1 SLP282 T01670056 52011





000
SAUS41 KLWX 231455
MTRNAK
METAR KNAK 231454Z AUTO 03004KT 10SM CLR 16/07 A3036 RMK AO2 SLP282
T01610067 51012 $





000
SAUS41 KLWX 231400
MTRRYT
METAR KRYT 231353Z AUTO 00000KT 10SM CLR 13/05 A3034 RMK AO2 SLP275
T01330050 $





000
SAUS41 KLWX 231359 COR
MTRDMH
METAR KDMH 231354Z AUTO 16/06 A3035 RMK AO1 SLP278 T01560056





000
SAUS41 KLWX 231356
MTRNAK
METAR KNAK 231354Z AUTO 02006KT 10SM CLR 16/07 A3035 RMK AO2 SLP278
T01560072 $





000
SAUS41 KLWX 231300
MTRRYT
METAR KRYT 231253Z AUTO 00000KT 10SM CLR 10/06 A3033 RMK AO2 SLP271
T01000056 $





000
SAUS41 KLWX 231259 COR
MTRDMH
METAR KDMH 231254Z AUTO 14/07 A3034 RMK AO1 SLP274 T01440067





000
SAUS41 KLWX 231255
MTRNAK
METAR KNAK 231254Z AUTO 33006KT 10SM CLR 14/08 A3034 RMK AO2 SLP275
T01390083 $





000
SAUS41 KLWX 231200
MTRRYT
METAR KRYT 231153Z AUTO 00000KT 10SM CLR 06/04 A3032 RMK AO2 SLP271
T00610044 10089 20056 53017 $





000
SAUS41 KLWX 231159 COR
MTRDMH
METAR KDMH 231154Z AUTO 13/06 A3033 RMK AO1 SLP271 T01280056 10150
20122 53017





000
SAUS41 KLWX 231155
MTRNAK
METAR KNAK 231154Z AUTO 34008KT 10SM CLR 13/09 A3032 RMK AO2 SLP269
T01330094 10156 20106 53017





000
SAUS41 KLWX 231059 COR
MTRDMH
METAR KDMH 231054Z AUTO 12/06 A3031 RMK AO1 SLP265 T01220056





000
SAUS41 KLWX 231059
MTRRYT
METAR KRYT 231053Z AUTO 00000KT 10SM CLR 06/04 A3030 RMK AO2 SLP264
T00610044 $





000
SAUS41 KLWX 231055
MTRNAK
METAR KNAK 231054Z AUTO 10SM CLR 11/08 A3030 RMK AO2 SLP263
T01110083 $





000
SAUS41 KLWX 231000
MTRRYT
METAR KRYT 230953Z AUTO 00000KT 10SM CLR 07/04 A3028 RMK AO2 SLP254
T00670044 $





000
SAUS41 KLWX 230959 COR
MTRDMH
METAR KDMH 230954Z AUTO 13/06 A3029 RMK AO1 SLP256 T01280056





000
SAUS41 KLWX 230956
MTRNAK
METAR KNAK 230954Z AUTO 10SM CLR 13/08 A3028 RMK AO2 SLP256
T01280083 $





000
SAUS41 KLWX 230900
MTRRYT
METAR KRYT 230853Z AUTO 00000KT 10SM CLR 07/04 A3027 RMK AO2 SLP251
T00720044 53008 $





000
SAUS41 KLWX 230859 COR
MTRDMH
METAR KDMH 230854Z AUTO 13/06 A3028 RMK AO1 SLP254 T01280056 53013





000
SAUS41 KLWX 230855
MTRNAK
METAR KNAK 230854Z AUTO 10SM CLR 13/08 A3027 RMK AO2 SLP253
T01330078 53016 $





000
SAUS41 KLWX 230800
MTRRYT
METAR KRYT 230753Z AUTO 00000KT 10SM CLR 08/04 A3026 RMK AO2 SLP245
T00830044 $





000
SAUS41 KLWX 230759 COR
MTRDMH
METAR KDMH 230754Z AUTO 14/05 A3026 RMK AO1 SLP245 T01390050





000
SAUS41 KLWX 230755
MTRNAK
METAR KNAK 230754Z AUTO 10SM CLR 14/08 A3026 RMK AO2 SLP248
T01390083 $





000
SAUS41 KLWX 230700
MTRRYT
METAR KRYT 230653Z AUTO 00000KT 10SM CLR 08/05 A3024 RMK AO2 SLP242
T00780050 $





000
SAUS41 KLWX 230659 COR
MTRDMH
METAR KDMH 230654Z AUTO 14/05 A3025 RMK AO1 SLP241 T01390050





000
SAUS41 KLWX 230655
MTRNAK
METAR KNAK 230654Z AUTO 10SM CLR 15/08 A3023 RMK AO2 SLP240
T01500078 $





000
SAUS41 KLWX 230600
MTRRYT
METAR KRYT 230553Z AUTO 00000KT 10SM CLR 09/06 A3025 RMK AO2 SLP241
T00890056 10139 20083 51008 $





000
SAUS41 KLWX 230559 COR
MTRDMH
METAR KDMH 230554Z AUTO 15/05 A3024 RMK AO1 SLP241 T01500050 10183
20150 53007





000
SAUS41 KLWX 230555
MTRNAK
METAR KNAK 230554Z AUTO 10SM CLR 16/08 A3022 RMK AO2 SLP237
T01560083 10183 20156 50002 $





000
SAUS41 KLWX 230500
MTRRYT
METAR KRYT 230453Z AUTO 00000KT 10SM FEW037 10/06 A3024 RMK AO2
SLP238 T01000056 401890100 $





000
SAUS41 KLWX 230459 COR
MTRDMH
METAR KDMH 230454Z AUTO 16/05 A3024 RMK AO1 SLP239 T01560050
402330156





000
SAUS41 KLWX 230456
MTRNAK
METAR KNAK 230454Z AUTO 10SM CLR 16/08 A3023 RMK AO2 SLP238
T01610078 402280161 $





000
SAUS41 KLWX 230400
MTRRYT
METAR KRYT 230353Z AUTO 00000KT 10SM OVC039 11/07 A3024 RMK AO2
SLP238 T01110067 $





000
SAUS41 KLWX 230359 COR
MTRDMH
METAR KDMH 230354Z AUTO 16/05 A3023 RMK AO1 SLP236 T01560050





000
SAUS41 KLWX 230355
MTRNAK
METAR KNAK 230354Z AUTO 10SM CLR 16/08 A3022 RMK AO2 SLP236
T01610083 $





000
SAUS41 KLWX 230300
MTRRYT
METAR KRYT 230253Z AUTO 00000KT 10SM BKN041 12/06 A3022 RMK AO2
SLP232 T01220061 51029 $





000
SAUS41 KLWX 230259 COR
MTRDMH
METAR KDMH 230254Z AUTO 16/06 A3022 RMK AO1 SLP234 T01610056 51032





000
SAUS41 KLWX 230255
MTRNAK
METAR KNAK 230254Z AUTO 10SM CLR 17/08 A3022 RMK AO2 SLP234
T01670078 51035 $





000
SAUS41 KLWX 230200
MTRRYT
METAR KRYT 230153Z AUTO 00000KT 10SM OVC041 13/06 A3020 RMK AO2
SLP226 T01280061 $





000
SAUS41 KLWX 230159 COR
MTRDMH
METAR KDMH 230154Z AUTO 17/06 A3020 RMK AO1 SLP225 T01670061





000
SAUS41 KLWX 230155
MTRNAK
METAR KNAK 230154Z AUTO 10SM CLR 17/09 A3019 RMK AO2 SLP224
T01720089 $





000
SAUS41 KLWX 230100
MTRRYT
METAR KRYT 230053Z AUTO VRB03KT 10SM FEW041 13/06 A3017 RMK AO2
SLP215 T01330056 $





000
SAUS41 KLWX 230059 COR
MTRDMH
METAR KDMH 230054Z AUTO 17/06 A3017 RMK AO1 SLP216 T01720056





000
SAUS41 KLWX 230055
MTRNAK
METAR KNAK 230054Z AUTO 10SM CLR 18/08 A3016 RMK AO2 SLP214
T01780083 $





000
SAUS41 KLWX 230000
MTRRYT
METAR KRYT 222353Z AUTO 05007KT 020V080 10SM CLR 13/05 A3014 RMK AO2
SLP204 T01330050 10189 20133 53018 $





000
SAUS41 KLWX 222359 COR
MTRDMH
METAR KDMH 222354Z AUTO 18/06 A3013 RMK AO1 SLP202 T01830061 10222
20183 53031





000
SAUS41 KLWX 222355
MTRNAK
METAR KNAK 222354Z AUTO 10SM CLR 18/08 A3011 RMK AO2 SLP199
T01830083 10217 20183 53027 $





000
SAUS41 KLWX 222300
MTRRYT
METAR KRYT 222253Z AUTO VRB06KT 10SM CLR 14/06 A3011 RMK AO2 SLP194
T01440056 $





000
SAUS41 KLWX 222259 COR
MTRDMH
METAR KDMH 222254Z AUTO 19/05 A3009 RMK AO1 SLP189 T01940050





000
SAUS41 KLWX 222255
MTRNAK
METAR KNAK 222254Z AUTO 10SM CLR 19/08 A3008 RMK AO2 SLP187
T01890083 $





000
SAUS41 KLWX 222200
MTRRYT
METAR KRYT 222153Z AUTO VRB04KT 10SM CLR 16/06 A3009 RMK AO2 SLP186
T01610056 $





000
SAUS41 KLWX 222159 COR
MTRDMH
METAR KDMH 222154Z AUTO 21/06 A3006 RMK AO1 SLP179 T02060056





000
SAUS41 KLWX 222156
MTRNAK
METAR KNAK 222154Z AUTO 10SM CLR 21/08 A3006 RMK AO2 SLP181
T02060083 $





000
SAUS41 KLWX 222100
MTRRYT
METAR KRYT 222053Z AUTO 32009G16KT 270V350 10SM CLR 17/06 A3008 RMK
AO2 SLP182 T01670056 53013 $





000
SAUS41 KLWX 222059 COR
MTRDMH
METAR KDMH 222054Z AUTO 21/07 A3004 RMK AO1 SLP171 T02110067 53010





000
SAUS41 KLWX 222055
MTRNAK
METAR KNAK 222054Z AUTO 10SM CLR 21/09 A3003 RMK AO2 SLP172
T02110089 53009 $





000
SAUS41 KLWX 222000
MTRRYT
METAR KRYT 221953Z AUTO VRB06KT 10SM CLR 18/06 A3005 RMK AO2 SLP172
T01780061 $





000
SAUS41 KLWX 221959 COR
MTRDMH
METAR KDMH 221954Z AUTO 22/07 A3002 RMK AO1 SLP167 T02220067





000
SAUS41 KLWX 221955
MTRNAK
METAR KNAK 221954Z AUTO 32011KT 10SM CLR 22/08 A3002 RMK AO2 SLP166
T02170083





000
SAUS41 KLWX 221900
MTRRYT
METAR KRYT 221853Z AUTO 01008G24KT 10SM CLR 18/06 A3005 RMK AO2
SLP169 T01780061 $





000
SAUS41 KLWX 221859 COR
MTRDMH
METAR KDMH 221854Z AUTO 22/08 A3001 RMK AO1 SLP163 T02170078





000
SAUS41 KLWX 221855
MTRNAK
METAR KNAK 221854Z AUTO 31010KT 10SM SCT050 21/09 A3000 RMK AO2
SLP162 T02110094





000
SAUS41 KLWX 221800
MTRRYT
METAR KRYT 221753Z AUTO VRB06KT 10SM FEW040 17/07 A3004 RMK AO2
SLP168 T01720067 10178 20133 51011 $





000
SAUS41 KLWX 221759 COR
MTRDMH
METAR KDMH 221754Z AUTO 21/08 A3001 RMK AO1 SLP161 T02110078 10222
20183 50002





000
SAUS41 KLWX 221756
MTRNAK
METAR KNAK 221754Z AUTO 33009G18KT 10SM FEW050 21/09 A3001 RMK AO2
SLP163 T02110094 10211 20172 50004 $





000
SAUS41 KLWX 221700
MTRRYT
METAR KRYT 221653Z AUTO 33007G18KT 290V050 10SM FEW037 17/07 A3004
RMK AO2 SLP166 T01720072 $





000
SAUS41 KLWX 221659 COR
MTRDMH
METAR KDMH 221654Z AUTO 21/08 A3001 RMK AO1 SLP163 T02110083





000
SAUS41 KLWX 221656
MTRNAK
METAR KNAK 221654Z AUTO 32011G20KT 10SM FEW049 20/09 A3001 RMK AO2
SLP165 T02000094





000
SAUS41 KLWX 221600
MTRRYT
METAR KRYT 221553Z AUTO VRB05G15KT 10SM FEW033 17/08 A3003 RMK AO2
SLP163 T01670078 $





000
SAUS41 KLWX 221559 COR
MTRDMH
METAR KDMH 221554Z AUTO 20/08 A3001 RMK AO1 SLP161 T02000078





000
SAUS41 KLWX 221556
MTRNAK
METAR KNAK 221554Z AUTO 32013G20KT 10SM BKN049 19/09 A3001 RMK AO2
SLP163 T01940089





000
SAUS41 KLWX 221500
MTRRYT
METAR KRYT 221453Z AUTO 36010G20KT 10SM CLR 16/08 A3001 RMK AO2
SLP156 T01610078 51019 $





000
SAUS41 KLWX 221459 COR
MTRDMH
METAR KDMH 221454Z AUTO 19/07 A3000 RMK AO1 SLP160 T01890072 51025





000
SAUS41 KLWX 221455
MTRNAK
METAR KNAK 221454Z AUTO 32014G23KT 10SM CLR 19/09 A3000 RMK AO2
SLP159 T01940094 53020





000
SAUS41 KLWX 221400
MTRRYT
METAR KRYT 221353Z AUTO 33008G16KT 230V010 8SM SCT033 16/08 A2999
RMK AO2 SLP149 T01560083 $





000
SAUS41 KLWX 221359 COR
MTRDMH
METAR KDMH 221354Z AUTO 19/08 A2998 RMK AO1 SLP152 T01940083





000
SAUS41 KLWX 221355
MTRNAK
METAR KNAK 221354Z AUTO 31011G20KT 10SM CLR 19/10 A2998 RMK AO2
SLP153 T01940100





000
SAUS41 KLWX 221300
MTRRYT
METAR KRYT 221253Z AUTO VRB03KT 10SM CLR 14/08 A2998 RMK AO2 SLP147
T01440083 $





000
SAUS41 KLWX 221259 COR
MTRDMH
METAR KDMH 221254Z AUTO 19/10 A2996 RMK AO1 SLP143 T01890100





000
SAUS41 KLWX 221255
MTRNAK
METAR KNAK 221254Z AUTO 29007KT 10SM CLR 18/11 A2995 RMK AO2 SLP144
T01830111





000
SAUS41 KLWX 221200
MTRRYT
METAR KRYT 221153Z AUTO VRB03KT 10SM CLR 14/08 A2995 RMK AO2 SLP137
70008 T01390083 10172 20139 53034 $





000
SAUS41 KLWX 221159 COR
MTRDMH
METAR KDMH 221154Z AUTO 18/09 A2993 RMK AO1 SLP135 T01830094 10222
20172 51034





000
SAUS41 KLWX 221155
MTRNAK
METAR KNAK 221154Z AUTO 30006KT 10SM CLR 17/10 A2994 RMK AO2 SLP139
7//// T01720100 10222 20167 53036





000
SAUS41 KLWX 221100
MTRRYT
METAR KRYT 221053Z AUTO 00000KT 10SM FEW038 BKN045 14/08 A2992 RMK
AO2 SLP124 T01390083 $





000
SAUS41 KLWX 221059 COR
MTRDMH
METAR KDMH 221054Z AUTO 17/09 A2990 RMK AO1 SLP123 T01720094





000
SAUS41 KLWX 221055
MTRNAK
METAR KNAK 221054Z AUTO 27005KT 10SM 17/09 A2990 RMK AO2 SLP127
T01670094 $





000
SAUS41 KLWX 221000
MTRRYT
METAR KRYT 220953Z AUTO 00000KT 10SM FEW043 14/09 A2988 RMK AO2
SLP112 T01390089 $





000
SAUS41 KLWX 220959 COR
MTRDMH
METAR KDMH 220954Z AUTO 18/09 A2987 RMK AO1 SLP113 T01830089





000
SAUS41 KLWX 220956
MTRNAK
METAR KNAK 220954Z AUTO 28004KT 10SM CLR 17/09 A2986 RMK AO2 SLP114
T01720094 $





000
SAUS41 KLWX 220900
MTRRYT
METAR KRYT 220853Z AUTO 00000KT 10SM CLR 15/09 A2985 RMK AO2 SLP101
T01500089 53015 $





000
SAUS41 KLWX 220859 COR
MTRDMH
METAR KDMH 220854Z AUTO 19/08 A2983 RMK AO1 SLP101 T01890083 53018





000
SAUS41 KLWX 220856
MTRNAK
METAR KNAK 220854Z AUTO 28007G15KT 10SM CLR 18/09 A2983 RMK AO2
SLP103 T01830089 53022 $





000
SAUS41 KLWX 220800
MTRRYT
METAR KRYT 220753Z AUTO VRB03KT 10SM OVC045 17/09 A2983 RMK AO2
SLP089 T01670089 $





000
SAUS41 KLWX 220759 COR
MTRDMH
METAR KDMH 220754Z AUTO 19/08 A2981 RMK AO1 SLP093 T01940083





000
SAUS41 KLWX 220756
MTRNAK
METAR KNAK 220754Z AUTO 30009KT 10SM CLR 20/09 A2980 RMK AO2 SLP093
T02000094 $





000
SAUS41 KLWX 220700
MTRRYT
METAR KRYT 220653Z AUTO 21003KT 10SM OVC045 17/09 A2981 RMK AO2
SLP085 T01670089 $





000
SAUS41 KLWX 220659 COR
MTRDMH
METAR KDMH 220654Z AUTO 21/08 A2979 RMK AO1 SLP087 T02060083





000
SAUS41 KLWX 220656
MTRNAK
METAR KNAK 220654Z AUTO VRB06KT 10SM CLR 21/09 A2978 RMK AO2 SLP088
T02060094 $





000
SAUS41 KLWX 220600
MTRRYT
METAR KRYT 220553Z AUTO VRB03KT 10SM CLR 17/08 A2980 RMK AO2 SLP081
T01720083 10217 20167 53019 $





000
SAUS41 KLWX 220559 COR
MTRDMH
METAR KDMH 220554Z AUTO 22/09 A2978 RMK AO1 SLP084 T02220089 10256
20222 51030





000
SAUS41 KLWX 220556
MTRNAK
METAR KNAK 220554Z AUTO 29008KT 10SM CLR 22/12 A2976 RMK AO2 SLP081
6//// T02220117 10233 20211 51026 $





000
SAUS41 KLWX 220500
MTRRYT
METAR KRYT 220453Z AUTO 00000KT 10SM CLR 18/09 A2977 RMK AO2 SLP072
T01830089 402670128 $





000
SAUS41 KLWX 220459 COR
MTRDMH
METAR KDMH 220454Z AUTO 23/11 A2975 RMK AO1 SLP074 T02330106
402780183





000
SAUS41 KLWX 220456
MTRNAK
METAR KNAK 220454Z AUTO 29008KT 10SM FEW100 SCT120 23/14 A2974 RMK
AO2 SLP073 T02280139 402560172 $





000
SAUS41 KLWX 220400
MTRRYT
METAR KRYT 220353Z AUTO 00000KT 10SM CLR 19/10 A2976 RMK AO2 SLP066
T01940100 $





000
SAUS41 KLWX 220359 COR
MTRDMH
METAR KDMH 220354Z AUTO 24/12 A2973 RMK AO1 SLP065 T02440117





000
SAUS41 KLWX 220355
MTRNAK
METAR KNAK 220354Z AUTO 29006KT 10SM 23/17 A2971 RMK AO2 SLP063
T02280167 $





000
SAUS41 KLWX 220300
MTRRYT
METAR KRYT 220253Z AUTO 00000KT 10SM CLR 20/14 A2975 RMK AO2 SLP062
T02000139 53020 $





000
SAUS41 KLWX 220259 COR
MTRDMH
METAR KDMH 220254Z AUTO 25/17 A2969 RMK AO1 SLP053 T02500167 53010





000
SAUS41 KLWX 220255
MTRNAK
METAR KNAK 220254Z AUTO 33003KT 10SM 22/19 A2969 RMK AO2 SLP054
6//// T02220189 53010 $





000
SAUS41 KLWX 220200
MTRRYT
METAR KRYT 220153Z AUTO VRB06KT 10SM SCT110 22/15 A2972 RMK AO2
SLP054 T02170150 $





000
SAUS41 KLWX 220159 COR
MTRDMH
METAR KDMH 220154Z AUTO 24/18 A2967 RMK AO1 SLP048 T02440183





000
SAUS41 KLWX 220155
MTRNAK
METAR KNAK 220154Z AUTO 30010G17KT 10SM FEW055 SCT070 BKN085 22/19
A2968 RMK AO2 RAB18E39 SLP051 P0006 T02220189 $





000
SAUS41 KLWX 220100
MTRRYT
METAR KRYT 220053Z AUTO VRB03KT 10SM FEW075 20/16 A2968 RMK AO2
SLP044 T02000161 $





000
SAUS41 KLWX 220059 COR
MTRDMH
METAR KDMH 220054Z AUTO 24/19 A2966 RMK AO1 SLP042 T02390189





000
SAUS41 KLWX 220055
MTRNAK
METAR KNAK 220054Z AUTO 00000KT 10SM FEW075 23/18 A2966 RMK AO2
SLP044 T02280178 $





000
SAUS41 KLWX 220000
MTRRYT
METAR KRYT 212353Z AUTO 00000KT 10SM FEW031 SCT095 BKN110 21/19
A2969 RMK AO2 RAB39E51 SLP047 P0001 60008 T02060189 10267 20206
53009 $





000
SAUS41 KLWX 212359 COR
MTRDMH
METAR KDMH 212354Z AUTO 24/18 A2966 RMK AO1 SLP043 T02440183 10278
20244 53002





000
SAUS41 KLWX 212355
MTRNAK
METAR KNAK 212354Z AUTO 15004KT 10SM 23/18 A2966 RMK AO2 SLP044
T02280178 10250 20228 $





000
SAUS41 KLWX 212300
MTRRYT
METAR KRYT 212253Z AUTO 00000KT 4SM BR FEW050 21/20 A2967 RMK AO2
SLP039 T02110200 $





000
SAUS41 KLWX 212259 COR
MTRDMH
METAR KDMH 212254Z AUTO 26/18 A2966 RMK AO1 SLP042 T02560183





000
SAUS41 KLWX 212255
MTRNAK
METAR KNAK 212254Z AUTO 18003KT 10SM CLR 23/17 A2966 RMK AO2 SLP045
T02330172 $





000
SAUS41 KLWX 212200
MTRRYT
METAR KRYT 212153Z AUTO 00000KT 8SM FEW046 SCT060 BKN110 22/20 A2965
RMK AO2 SLP034 T02170200 $





000
SAUS41 KLWX 212159 COR
MTRDMH
METAR KDMH 212154Z AUTO 26/17 A2965 RMK AO1 SLP039 T02560172





000
SAUS41 KLWX 212156
MTRNAK
METAR KNAK 212154Z AUTO 16007KT 10SM CLR 24/17 A2965 RMK AO2 SLP041
T02440172 $





000
SAUS41 KLWX 212100
MTRRYT
METAR KRYT 212053Z AUTO 00000KT 5SM BR FEW047 BKN070 OVC100 22/21
A2966 RMK AO2 RAB25E49 SLP036 P0007 60007 T02170206 56022 $





000
SAUS41 KLWX 212059 COR
MTRDMH
METAR KDMH 212054Z AUTO 26/16 A2965 RMK AO1 SLP041 T02610156 56028





000
SAUS41 KLWX 212055
MTRNAK
METAR KNAK 212054Z AUTO 13009KT 10SM CLR 24/17 A2966 RMK AO2 SLP046
T02390172 56028 $





000
SAUS41 KLWX 212052
MTRRYT
SPECI KRYT 212046Z AUTO 00000KT 3SM -RA BR FEW043 BKN070 OVC110
22/20 A2966 RMK AO2 RAB25 P0007 $





000
SAUS41 KLWX 212037
MTRRYT
SPECI KRYT 212036Z AUTO 00000KT 1 3/4SM RA SCT047 BKN060 OVC095
23/19 A2967 RMK AO2 VIS 1V3 RAB25 P0006 $





000
SAUS41 KLWX 212000
MTRRYT
METAR KRYT 211953Z AUTO VRB04KT 10SM FEW060 27/17 A2966 RMK AO2
SLP035 T02670172 $





000
SAUS41 KLWX 211959 COR
MTRDMH
METAR KDMH 211954Z AUTO 27/16 A2967 RMK AO1 SLP047 T02670161





000
SAUS41 KLWX 211955
MTRNAK
METAR KNAK 211954Z AUTO 12008KT 10SM CLR 23/19 A2968 RMK AO2 SLP052
T02330189 $





000
SAUS41 KLWX 211900
MTRRYT
METAR KRYT 211853Z AUTO VRB05KT 10SM SCT055 27/18 A2969 RMK AO2
SLP043 T02670183 $





000
SAUS41 KLWX 211859 COR
MTRDMH
METAR KDMH 211854Z AUTO 27/17 A2969 RMK AO1 SLP055 T02670167





000
SAUS41 KLWX 211855
MTRNAK
METAR KNAK 211854Z AUTO 13004KT 10SM CLR 23/19 A2970 RMK AO2 SLP059
T02330189 $





000
SAUS41 KLWX 211800
MTRRYT
METAR KRYT 211753Z AUTO 25003KT 10SM BKN044 27/18 A2972 RMK AO2
SLP055 T02670178 10267 20133 58036 $





000
SAUS41 KLWX 211759 COR
MTRDMH
METAR KDMH 211754Z AUTO 27/16 A2974 RMK AO1 SLP069 T02670161 10267
20189 58041





000
SAUS41 KLWX 211755
MTRNAK
METAR KNAK 211754Z AUTO 13010KT 10SM CLR 24/19 A2974 RMK AO2 SLP074
T02390194 10256 20189 58033 $





000
SAUS41 KLWX 211700
MTRRYT
METAR KRYT 211653Z AUTO 03003KT 10SM CLR 24/17 A2978 RMK AO2 SLP075
T02440172 $





000
SAUS41 KLWX 211659 COR
MTRDMH
METAR KDMH 211654Z AUTO 25/17 A2978 RMK AO1 SLP084 T02500167





000
SAUS41 KLWX 211656
MTRNAK
METAR KNAK 211654Z AUTO 32005KT 10SM CLR 24/17 A2978 RMK AO2 SLP085
T02390172 $





000
SAUS41 KLWX 211600
MTRRYT
METAR KRYT 211553Z AUTO VRB03KT 10SM CLR 23/17 A2981 RMK AO2 SLP084
T02330167 $





000
SAUS41 KLWX 211559 COR
MTRDMH
METAR KDMH 211554Z AUTO 23/16 A2983 RMK AO1 SLP100 T02280161





000
SAUS41 KLWX 211555
MTRNAK
METAR KNAK 211554Z AUTO 00000KT 10SM CLR 23/18 A2982 RMK AO2 SLP099
T02280178 $





000
SAUS41 KLWX 211500
MTRRYT
METAR KRYT 211453Z AUTO 00000KT 10SM CLR 22/17 A2983 RMK AO2 SLP094
T02220167 58015 $





000
SAUS41 KLWX 211459 COR
MTRDMH
METAR KDMH 211454Z AUTO 21/17 A2986 RMK AO1 SLP110 T02060167 58014





000
SAUS41 KLWX 211456
MTRNAK
METAR KNAK 211454Z AUTO 00000KT 10SM 22/17 A2984 RMK AO2 SLP107
T02170172 58015 $





000
SAUS41 KLWX 211417
MTRNAK
SPECI KNAK 211415Z AUTO 36004KT 10SM 21/17 A2986 RMK AO2 T02060172 $





000
SAUS41 KLWX 211400
MTRRYT
METAR KRYT 211353Z AUTO 00000KT 10SM BKN049 19/16 A2987 RMK AO2
SLP108 T01890156 $





000
SAUS41 KLWX 211359 COR
MTRDMH
METAR KDMH 211354Z AUTO 19/17 A2988 RMK AO1 SLP118 T01940167





000
SAUS41 KLWX 211355
MTRNAK
METAR KNAK 211354Z AUTO 05005KT 10SM BKN013 20/17 A2986 RMK AO2
SLP114 T02000172 $





000
SAUS41 KLWX 211300
MTRRYT
METAR KRYT 211253Z AUTO 00000KT 10SM CLR 16/14 A2987 RMK AO2 SLP111
T01610139 $





000
SAUS41 KLWX 211259 COR
MTRDMH
METAR KDMH 211254Z AUTO 19/17 A2989 RMK AO1 SLP121 T01940167





000
SAUS41 KLWX 211255
MTRNAK
METAR KNAK 211254Z AUTO 36004KT 5SM BR OVC012 19/18 A2988 RMK AO2
SLP119 T01940178 $





000
SAUS41 KLWX 211200
MTRRYT
METAR KRYT 211153Z AUTO 00000KT 7SM CLR 14/12 A2988 RMK AO2 SLP112
T01390122 10167 20128 58010 $





000
SAUS41 KLWX 211159 COR
MTRDMH
METAR KDMH 211154Z AUTO 19/17 A2990 RMK AO1 SLP124 T01890172 10200
20183 56008





000
SAUS41 KLWX 211155
MTRNAK
METAR KNAK 211154Z AUTO 01003KT 6SM BR BKN010 19/17 A2989 RMK AO2
SLP122 T01890172 10200 20172 56005 $





000
SAUS41 KLWX 211100
MTRRYT
METAR KRYT 211053Z AUTO 00000KT 9SM CLR 14/13 A2989 RMK AO2 SLP115
T01440133 $





000
SAUS41 KLWX 211059 COR
MTRDMH
METAR KDMH 211054Z AUTO 19/18 A2991 RMK AO1 SLP127 T01890178





000
SAUS41 KLWX 211055
MTRNAK
METAR KNAK 211054Z AUTO 35003KT 9SM SCT013 19/17 A2989 RMK AO2
SLP123 T01890172 $





000
SAUS41 KLWX 211003
MTRNAK
SPECI KNAK 211002Z AUTO 31003KT 6SM BR BKN011 18/17 A2988 RMK AO2
T01830167 $





000
SAUS41 KLWX 211000
MTRRYT
METAR KRYT 210953Z AUTO 00000KT 5SM BR CLR 13/12 A2992 RMK AO2
SLP123 T01330122 $





000
SAUS41 KLWX 210959 COR
MTRDMH
METAR KDMH 210954Z AUTO 18/17 A2990 RMK AO1 SLP125 T01830172





000
SAUS41 KLWX 210956
MTRNAK
METAR KNAK 210954Z AUTO 00000KT 6SM BR SCT011 17/16 A2989 RMK AO2
SLP122 T01720161 $





000
SAUS41 KLWX 210900
MTRRYT
METAR KRYT 210853Z AUTO 00000KT 6SM BR CLR 14/13 A2991 RMK AO2
SLP120 T01390128 56029 $





000
SAUS41 KLWX 210859 COR
MTRDMH
METAR KDMH 210854Z AUTO 18/17 A2992 RMK AO1 SLP133 T01830172 56027





000
SAUS41 KLWX 210855
MTRNAK
METAR KNAK 210854Z AUTO 30003KT 6SM BR CLR 18/17 A2990 RMK AO2
SLP127 T01830172 56034 $





000
SAUS41 KLWX 210800
MTRRYT
METAR KRYT 210753Z AUTO 00000KT 5SM BR CLR 14/13 A2992 RMK AO2
SLP124 T01390128 $





000
SAUS41 KLWX 210759 COR
MTRDMH
METAR KDMH 210754Z AUTO 19/17 A2994 RMK AO1 SLP136 T01890172





000
SAUS41 KLWX 210756
MTRNAK
METAR KNAK 210754Z AUTO 31003KT 8SM CLR 18/17 A2993 RMK AO2 SLP135
T01830172 $





000
SAUS41 KLWX 210700
MTRRYT
METAR KRYT 210653Z AUTO 00000KT 9SM CLR 15/14 A2995 RMK AO2 SLP132
T01500139 $





000
SAUS41 KLWX 210659 COR
MTRDMH
METAR KDMH 210654Z AUTO 19/17 A2996 RMK AO1 SLP145 T01940167





000
SAUS41 KLWX 210655
MTRNAK
METAR KNAK 210654Z AUTO 00000KT 10SM CLR 19/17 A2995 RMK AO2 SLP145
T01890167 $





000
SAUS41 KLWX 210600
MTRRYT
METAR KRYT 210553Z AUTO 00000KT 10SM CLR 15/14 A3000 RMK AO2 SLP150
T01500139 10194 20144 58027 $





000
SAUS41 KLWX 210559 COR
MTRDMH
METAR KDMH 210554Z AUTO 20/17 A3000 RMK AO1 SLP160 T02000172 10239
20200 58017





000
SAUS41 KLWX 210556
MTRNAK
METAR KNAK 210554Z AUTO 33006KT 8SM CLR 19/18 A3000 RMK AO2 SLP161
T01940178 10222 20189 58016 $





000
SAUS41 KLWX 210500
MTRRYT
METAR KRYT 210453Z AUTO 00000KT 10SM CLR 16/14 A3003 RMK AO2 SLP162
T01610139 402500144 $





000
SAUS41 KLWX 210459 COR
MTRDMH
METAR KDMH 210454Z AUTO 21/16 A3004 RMK AO1 SLP171 T02060161
402610172





000
SAUS41 KLWX 210455
MTRNAK
METAR KNAK 210454Z AUTO 00000KT 10SM CLR 19/18 A3002 RMK AO2 SLP168
T01940178 402500178 $





    US Dept of Commerce
    National Oceanic and Atmospheric Administration
    National Weather Service
    1325 East West Highway
    Silver Spring, MD 20910
    Page Author: NWS Internet Services Team
Disclaimer
Information Quality
Credits
Glossary
Privacy Policy
Freedom of Information Act (FOIA)
About Us
Career Opportunities